Time;durP1;ratioP1;P1;durP2;ratioP2;P2;SDS_P1;SDS_P2;PMS_P1;PMS_P2;Temp;Humidity;BMP_temperature;BMP_pressure;BME280_temperature;BME280_humidity;BME280_pressure;Samples;Min_cycle;Max_cycle;Signal;HPM_P1;HPM_P2
2021/03/09 00:00:18;;;;;;;10.03;4.17;;;;;;;-3.67;70.64;101288.44;4991579;28;20420;-68
2021/03/09 00:02:43;;;;;;;10.30;5.07;;;;;;;-3.63;70.31;101296.47;4991614;28;20093;-69
2021/03/09 00:05:09;;;;;;;11.83;4.93;;;;;;;-3.60;69.94;101288.91;4991251;28;20034;-69
2021/03/09 00:07:35;;;;;;;10.40;4.13;;;;;;;-3.59;70.03;101289.78;4991553;28;20030;-68
2021/03/09 00:10:00;;;;;;;9.20;3.97;;;;;;;-3.58;69.79;101286.44;4991372;28;20038;-68
2021/03/09 00:12:27;;;;;;;14.77;5.17;;;;;;;-3.55;70.04;101286.63;4991460;28;20385;-68
2021/03/09 00:14:53;;;;;;;12.20;4.40;;;;;;;-3.57;69.28;101285.63;4991355;28;20544;-69
2021/03/09 00:17:18;;;;;;;12.27;4.67;;;;;;;-3.59;69.89;101282.97;4991289;28;20129;-68
2021/03/09 00:19:43;;;;;;;12.80;6.03;;;;;;;-3.55;69.50;101284.94;4991427;28;20038;-68
2021/03/09 00:22:09;;;;;;;12.87;6.17;;;;;;;-3.50;70.15;101282.66;4991746;28;20100;-68
2021/03/09 00:24:34;;;;;;;9.20;4.47;;;;;;;-3.46;69.90;101281.13;4991289;28;20121;-68
2021/03/09 00:26:59;;;;;;;10.93;5.27;;;;;;;-3.42;68.73;101285.69;4991086;28;20042;-68
2021/03/09 00:29:25;;;;;;;11.13;4.20;;;;;;;-3.39;68.56;101285.88;4991404;28;20109;-68
2021/03/09 00:31:50;;;;;;;7.93;4.60;;;;;;;-3.42;69.17;101285.69;4991219;28;20149;-68
2021/03/09 00:34:15;;;;;;;9.37;4.63;;;;;;;-3.40;69.17;101289.28;4991275;28;20042;-68
2021/03/09 00:36:41;;;;;;;9.83;4.77;;;;;;;-3.40;68.87;101278.94;4994609;28;20046;-68
2021/03/09 00:39:06;;;;;;;9.87;4.47;;;;;;;-3.38;68.61;101288.56;4994556;28;20038;-68
2021/03/09 00:41:31;;;;;;;9.70;4.30;;;;;;;-3.39;68.72;101285.88;4994951;28;20080;-68
2021/03/09 00:43:57;;;;;;;13.63;4.80;;;;;;;-3.38;69.15;101288.56;4994608;28;20466;-68
2021/03/09 00:46:22;;;;;;;12.20;5.60;;;;;;;-3.36;68.52;101286.06;4994458;28;20505;-68
2021/03/09 00:48:48;;;;;;;8.90;4.40;;;;;;;-3.32;68.50;101282.91;4994559;28;20533;-68
2021/03/09 00:51:13;;;;;;;9.60;4.73;;;;;;;-3.32;67.94;101282.91;4994452;28;20077;-69
2021/03/09 00:53:38;;;;;;;10.93;4.83;;;;;;;-3.36;68.62;101279.22;4994464;28;20081;-68
2021/03/09 00:56:05;;;;;;;12.03;4.63;;;;;;;-3.41;68.33;101274.56;4994136;28;20043;-68
2021/03/09 00:58:30;;;;;;;8.57;4.33;;;;;;;-3.47;68.65;101276.78;4996513;28;20081;-68
2021/03/09 01:00:56;;;;;;;11.40;5.73;;;;;;;-3.51;69.40;101267.97;4997038;28;20631;-68
2021/03/09 01:03:21;;;;;;;10.67;5.07;;;;;;;-3.50;69.65;101264.56;4994334;28;20045;-69
2021/03/09 01:05:46;;;;;;;11.30;4.43;;;;;;;-3.55;69.27;101264.28;4993970;28;20038;-68
2021/03/09 01:08:12;;;;;;;14.80;5.30;;;;;;;-3.55;68.76;101264.28;4994104;28;20123;-68
2021/03/09 01:10:39;;;;;;;15.47;6.77;;;;;;;-3.53;68.46;101267.84;4994196;28;20117;-68
2021/03/09 01:13:04;;;;;;;11.97;4.53;;;;;;;-3.59;68.83;101266.56;4994050;28;20495;-68
2021/03/09 01:15:30;;;;;;;12.67;5.30;;;;;;;-3.61;68.00;101260.44;4993789;28;20046;-68
2021/03/09 01:17:55;;;;;;;10.37;4.73;;;;;;;-3.64;68.37;101256.00;4993962;28;20061;-68
2021/03/09 01:20:21;;;;;;;10.70;4.87;;;;;;;-3.69;68.41;101259.97;4994088;28;20034;-68
2021/03/09 01:22:46;;;;;;;8.77;4.63;;;;;;;-3.75;69.25;101257.91;4993849;28;20485;-68
2021/03/09 01:25:12;;;;;;;9.87;4.73;;;;;;;-3.80;68.81;101260.97;4993588;28;20034;-69
2021/03/09 01:27:38;;;;;;;10.70;5.23;;;;;;;-3.77;69.63;101256.03;4993935;28;20045;-68
2021/03/09 01:30:06;;;;;;;11.23;5.40;;;;;;;-3.75;70.30;101259.56;4993701;28;20057;-68
2021/03/09 01:32:31;;;;;;;8.33;4.63;;;;;;;-3.78;69.74;101249.06;4993756;28;20034;-68
2021/03/09 01:34:57;;;;;;;10.43;4.47;;;;;;;-3.80;70.46;101250.63;4993485;28;20603;-68
2021/03/09 01:37:22;;;;;;;10.00;3.73;;;;;;;-3.77;69.99;101251.75;4993437;28;20496;-68
2021/03/09 01:39:47;;;;;;;9.33;4.33;;;;;;;-3.84;70.42;101248.69;4993512;28;20049;-68
2021/03/09 01:42:13;;;;;;;12.93;4.90;;;;;;;-3.94;70.58;101248.88;4993612;28;20109;-68
2021/03/09 01:44:38;;;;;;;10.70;4.33;;;;;;;-3.96;70.35;101235.88;4993439;28;20141;-68
2021/03/09 01:47:04;;;;;;;9.73;4.70;;;;;;;-3.93;70.49;101235.19;4993118;28;20062;-68
2021/03/09 01:49:32;;;;;;;8.63;4.50;;;;;;;-3.92;70.91;101234.41;4993358;28;20096;-68
2021/03/09 01:51:58;;;;;;;9.27;4.60;;;;;;;-3.97;71.99;101223.81;4993022;28;20136;-68
2021/03/09 01:54:24;;;;;;;7.77;4.13;;;;;;;-3.94;71.64;101221.41;4993419;28;20093;-68
2021/03/09 01:56:49;;;;;;;9.93;4.50;;;;;;;-3.84;71.39;101228.94;4993011;28;20473;-68
2021/03/09 01:59:16;;;;;;;12.77;5.20;;;;;;;-3.71;71.35;101219.41;4993109;28;20404;-68
2021/03/09 02:01:42;;;;;;;13.17;5.73;;;;;;;-3.64;70.38;101213.78;4993150;28;20045;-68
2021/03/09 02:04:07;;;;;;;14.40;5.00;;;;;;;-3.62;71.14;101210.50;4993058;28;20034;-69
2021/03/09 02:06:34;;;;;;;13.47;5.93;;;;;;;-3.60;71.18;101208.03;4992818;28;20533;-69
2021/03/09 02:09:01;;;;;;;10.93;4.33;;;;;;;-3.60;70.53;101214.09;4993022;28;20065;-69
2021/03/09 02:11:42;;;;;;;11.40;5.00;;;;;;;-3.55;71.22;101206.63;4993042;28;20046;-68
2021/03/09 02:14:40;;;;;;;8.87;4.40;;;;;;;-3.50;70.71;101204.34;4992903;28;20038;-68
2021/03/09 02:17:24;;;;;;;9.33;4.70;;;;;;;-3.45;70.77;101198.66;4992607;28;20041;-68
2021/03/09 02:20:07;;;;;;;8.43;3.67;;;;;;;-3.40;70.53;101202.41;4992874;28;20390;-68
2021/03/09 02:22:56;;;;;;;9.67;4.23;;;;;;;-3.38;70.14;101199.91;4985904;28;20425;-68
2021/03/09 02:25:26;;;;;;;8.30;3.80;;;;;;;-3.35;69.77;101192.38;4985263;28;20077;-68
2021/03/09 02:28:20;;;;;;;8.23;4.00;;;;;;;-3.32;70.25;101196.00;4993024;28;20045;-68
2021/03/09 02:30:46;;;;;;;10.73;4.93;;;;;;;-3.40;69.89;101196.34;4992658;28;20042;-68
2021/03/09 02:33:20;;;;;;;11.70;5.17;;;;;;;-3.47;70.00;101189.91;4992925;28;20401;-68
2021/03/09 02:35:59;;;;;;;9.57;4.17;;;;;;;-3.50;69.95;101188.84;4992186;28;20138;-69
2021/03/09 02:38:28;;;;;;;9.70;4.47;;;;;;;-3.65;71.48;101189.69;4985761;28;20038;-68
2021/03/09 02:40:57;;;;;;;8.87;4.70;;;;;;;-3.71;70.83;101197.06;4992475;28;20088;-69
2021/03/09 02:43:23;;;;;;;14.13;5.40;;;;;;;-3.66;71.24;101192.19;4992481;28;20038;-68
2021/03/09 02:45:50;;;;;;;9.37;4.10;;;;;;;-3.67;71.50;101190.38;4992395;28;20481;-68
2021/03/09 02:48:20;;;;;;;9.57;4.17;;;;;;;-3.65;70.45;101192.28;4992330;28;20042;-68
2021/03/09 02:50:48;;;;;;;10.17;4.30;;;;;;;-3.70;70.22;101185.03;4992321;28;20053;-68
2021/03/09 02:53:15;;;;;;;9.17;4.37;;;;;;;-3.79;71.93;101190.53;4992362;28;20038;-68
2021/03/09 02:55:42;;;;;;;9.23;4.03;;;;;;;-3.87;71.53;101190.06;4992074;28;20038;-68
2021/03/09 02:58:09;;;;;;;7.70;4.00;;;;;;;-3.89;71.50;101194.22;4991730;28;20042;-68
2021/03/09 03:00:38;;;;;;;10.20;4.27;;;;;;;-3.92;71.81;101193.16;4992099;28;20125;-68
2021/03/09 03:03:08;;;;;;;9.00;3.90;;;;;;;-3.93;71.19;101192.28;4992142;28;20551;-68
2021/03/09 03:05:35;;;;;;;10.83;5.27;;;;;;;-3.98;71.55;101186.81;4991814;28;20109;-68
2021/03/09 03:08:05;;;;;;;11.33;4.60;;;;;;;-3.93;72.39;101191.34;4986581;28;20093;-68
2021/03/09 03:10:32;;;;;;;9.73;4.13;;;;;;;-3.89;71.67;101185.59;4992229;28;20128;-68
2021/03/09 03:12:59;;;;;;;7.43;3.67;;;;;;;-3.82;71.19;101186.09;4992071;28;20043;-68
2021/03/09 03:15:24;;;;;;;9.43;4.60;;;;;;;-3.73;72.13;101185.75;4991750;28;20137;-68
2021/03/09 03:17:50;;;;;;;10.43;5.20;;;;;;;-3.70;71.48;101180.78;4992089;28;20118;-68
2021/03/09 03:20:18;;;;;;;9.23;5.07;;;;;;;-3.66;71.12;101181.88;4991884;28;20043;-68
2021/03/09 03:22:46;;;;;;;10.07;5.03;;;;;;;-3.76;71.96;101180.41;4992016;28;20027;-68
2021/03/09 03:25:13;;;;;;;12.50;6.00;;;;;;;-3.92;72.75;101182.84;4991678;28;20578;-69
2021/03/09 03:27:41;;;;;;;9.20;4.43;;;;;;;-3.94;71.87;101184.44;4991765;28;20121;-68
2021/03/09 03:30:12;;;;;;;10.13;5.40;;;;;;;-3.91;72.05;101182.03;4991799;28;20058;-69
2021/03/09 03:32:38;;;;;;;13.07;7.07;;;;;;;-3.85;72.14;101182.41;4991978;28;20489;-68
2021/03/09 03:35:08;;;;;;;10.70;5.83;;;;;;;-3.78;71.92;101177.72;4991536;28;20041;-68
2021/03/09 03:37:35;;;;;;;13.97;6.30;;;;;;;-3.71;72.12;101179.00;4991866;28;20505;-68
2021/03/09 03:40:04;;;;;;;12.37;6.53;;;;;;;-3.68;71.47;101184.34;4991751;28;20108;-68
2021/03/09 03:42:29;;;;;;;12.00;5.87;;;;;;;-3.67;72.17;101178.38;4991851;28;20118;-68
2021/03/09 03:44:55;;;;;;;12.30;5.10;;;;;;;-3.66;71.34;101180.19;4991640;28;20133;-68
2021/03/09 03:47:20;;;;;;;10.13;4.50;;;;;;;-3.66;71.85;101175.03;4991526;28;20122;-68
2021/03/09 03:49:45;;;;;;;9.80;5.60;;;;;;;-3.67;71.90;101180.97;4991547;28;20034;-69
2021/03/09 03:52:39;;;;;;;12.30;6.23;;;;;;;-3.75;71.75;101175.34;4991595;28;20046;-68
2021/03/09 03:55:22;;;;;;;11.47;5.57;;;;;;;-3.80;72.04;101179.34;4991603;28;20038;-69
2021/03/09 03:57:49;;;;;;;9.87;5.50;;;;;;;-3.78;72.44;101176.84;4991673;28;20073;-68
2021/03/09 04:00:17;;;;;;;16.97;7.93;;;;;;;-3.68;71.45;101180.88;4991569;28;20493;-68
2021/03/09 04:02:45;;;;;;;15.03;6.77;;;;;;;-3.63;71.72;101171.75;4991579;28;20022;-68
2021/03/09 04:05:11;;;;;;;13.27;6.60;;;;;;;-3.63;71.85;101167.47;4991155;28;20133;-69
2021/03/09 04:07:38;;;;;;;12.83;6.27;;;;;;;-3.61;71.69;101165.88;4989957;28;20114;-69
2021/03/09 04:10:04;;;;;;;14.10;6.33;;;;;;;-3.62;70.96;101169.22;4990111;28;20030;-68
2021/03/09 04:12:30;;;;;;;11.40;6.20;;;;;;;-3.59;71.26;101168.53;4994891;28;20040;-68
2021/03/09 04:14:59;;;;;;;12.60;7.50;;;;;;;-3.54;71.77;101162.88;4994964;28;20041;-68
2021/03/09 04:17:25;;;;;;;12.90;6.23;;;;;;;-3.49;70.81;101159.66;4995052;28;20037;-68
2021/03/09 04:19:53;;;;;;;9.43;4.33;;;;;;;-3.49;70.48;101159.66;4995194;28;20389;-69
2021/03/09 04:22:19;;;;;;;10.37;4.90;;;;;;;-3.60;71.16;101157.31;4994207;28;20433;-68
2021/03/09 04:24:46;;;;;;;13.80;6.70;;;;;;;-3.65;70.86;101157.84;4994761;28;20096;-68
2021/03/09 04:27:20;;;;;;;10.90;4.80;;;;;;;-3.60;71.20;101166.75;4994937;28;20401;-68
2021/03/09 04:29:50;;;;;;;16.00;7.00;;;;;;;-3.54;71.27;101164.53;4994931;28;20058;-68
2021/03/09 04:32:17;;;;;;;11.27;5.07;;;;;;;-3.51;71.09;101157.00;4994742;28;20042;-69
2021/03/09 04:34:42;;;;;;;10.30;5.13;;;;;;;-3.47;70.21;101152.91;4994693;28;20044;-68
2021/03/09 04:37:09;;;;;;;10.80;4.73;;;;;;;-3.47;70.94;101150.31;4994555;28;20467;-68
2021/03/09 04:39:34;;;;;;;9.80;4.30;;;;;;;-3.52;70.58;101145.78;4994657;28;20104;-68
2021/03/09 04:41:59;;;;;;;12.57;7.13;;;;;;;-3.58;71.11;101142.84;4994663;28;20034;-69
2021/03/09 04:44:25;;;;;;;11.40;5.70;;;;;;;-3.59;71.18;101143.63;4994532;28;20484;-69
2021/03/09 04:46:51;;;;;;;13.10;6.53;;;;;;;-3.55;71.09;101148.16;4994503;28;20046;-68
2021/03/09 04:49:16;;;;;;;8.17;4.23;;;;;;;-3.53;70.42;101145.69;4994417;28;20417;-68
2021/03/09 04:51:41;;;;;;;10.17;5.40;;;;;;;-3.49;70.45;101141.59;4987844;28;20092;-69
2021/03/09 04:54:07;;;;;;;9.90;5.30;;;;;;;-3.51;70.22;101146.69;4994135;28;20049;-68
2021/03/09 04:56:33;;;;;;;13.07;5.03;;;;;;;-3.53;70.95;101150.84;4994047;28;20034;-68
2021/03/09 04:58:58;;;;;;;9.03;4.40;;;;;;;-3.56;70.32;101148.97;4994402;28;20038;-69
2021/03/09 05:01:24;;;;;;;9.90;4.77;;;;;;;-3.62;70.36;101143.44;5004230;28;20041;-69
2021/03/09 05:03:49;;;;;;;12.50;4.93;;;;;;;-3.68;71.04;101153.38;4994386;28;20038;-69
2021/03/09 05:06:14;;;;;;;11.27;5.13;;;;;;;-3.87;72.24;101148.81;4993969;28;20042;-68
2021/03/09 05:08:40;;;;;;;11.53;5.57;;;;;;;-3.91;72.06;101153.66;4994169;28;20051;-69
2021/03/09 05:11:05;;;;;;;10.83;4.60;;;;;;;-3.85;71.38;101146.28;4994125;28;20042;-69
2021/03/09 05:13:30;;;;;;;9.50;4.83;;;;;;;-3.76;72.00;101145.19;4994168;28;20053;-69
2021/03/09 05:15:56;;;;;;;10.30;4.83;;;;;;;-3.72;70.85;101151.44;4993720;28;20516;-69
2021/03/09 05:18:21;;;;;;;11.27;5.07;;;;;;;-3.69;70.61;101145.53;5069344;23;20049;-71
2021/03/09 05:20:46;;;;;;;10.40;4.60;;;;;;;-3.68;71.16;101148.22;5021017;28;20033;-70
2021/03/09 05:23:12;;;;;;;10.60;5.23;;;;;;;-3.65;71.49;101151.00;5024068;28;20555;-71
2021/03/09 05:25:38;;;;;;;11.83;4.63;;;;;;;-3.62;70.79;101148.59;5021383;28;20034;-71
2021/03/09 05:28:04;;;;;;;18.97;5.97;;;;;;;-3.62;71.14;101142.53;5023020;28;20117;-71
2021/03/09 05:30:29;;;;;;;11.73;5.33;;;;;;;-3.59;71.18;101151.38;5024807;28;20037;-70
2021/03/09 05:32:56;;;;;;;11.40;4.80;;;;;;;-3.54;71.00;101149.97;5024368;28;20041;-70
2021/03/09 05:35:21;;;;;;;14.60;5.17;;;;;;;-3.49;70.21;101150.22;5021178;28;20044;-70
2021/03/09 05:37:47;;;;;;;14.50;6.80;;;;;;;-3.47;70.85;101158.06;5021217;28;20029;-70
2021/03/09 05:40:16;;;;;;;15.67;6.00;;;;;;;-3.44;69.83;101158.25;5024073;28;20042;-70
2021/03/09 05:42:46;;;;;;;11.10;4.93;;;;;;;-3.40;69.66;101153.38;5024637;28;20037;-71
2021/03/09 05:45:11;;;;;;;11.83;5.70;;;;;;;-3.37;70.75;101157.81;5021654;28;20034;-70
2021/03/09 05:47:37;;;;;;;9.90;4.47;;;;;;;-3.39;70.59;101154.25;5021105;28;20092;-70
2021/03/09 05:50:04;;;;;;;11.00;5.47;;;;;;;-3.34;70.19;101161.47;5022524;28;20073;-71
2021/03/09 05:52:32;;;;;;;11.17;5.73;;;;;;;-3.26;70.21;101153.31;5024628;28;20033;-70
2021/03/09 05:54:57;;;;;;;11.60;5.87;;;;;;;-3.21;69.62;101142.44;5023483;28;20083;-71
2021/03/09 05:57:23;;;;;;;13.60;5.47;;;;;;;-3.17;69.44;101151.25;5020721;28;20046;-70
2021/03/09 05:59:49;;;;;;;14.40;5.90;;;;;;;-3.29;70.41;101159.16;5012891;28;20037;-70
2021/03/09 06:02:14;;;;;;;23.53;12.60;;;;;;;-3.26;70.27;101156.75;5021081;28;20411;-71
2021/03/09 06:04:40;;;;;;;16.57;7.77;;;;;;;-3.22;70.34;101145.84;5028867;28;20041;-71
2021/03/09 06:07:05;;;;;;;12.30;6.00;;;;;;;-3.20;70.15;101146.78;5021890;28;20117;-71
2021/03/09 06:09:33;;;;;;;12.00;5.33;;;;;;;-3.22;70.18;101148.41;5020622;28;20112;-70
2021/03/09 06:12:24;;;;;;;10.60;5.57;;;;;;;-3.16;69.88;101151.34;5021498;28;20037;-71
2021/03/09 06:14:56;;;;;;;10.23;4.97;;;;;;;-3.09;69.62;101148.34;5024057;28;20048;-71
2021/03/09 06:17:38;;;;;;;10.03;5.43;;;;;;;-3.00;69.87;101152.25;5012646;28;20049;-70
2021/03/09 06:20:08;;;;;;;11.90;4.72;;;;;;;-2.97;69.89;101147.25;5022174;28;20037;-71
2021/03/09 06:22:42;;;;;;;12.43;4.87;;;;;;;-2.93;69.22;101146.66;5023948;28;20112;-70
2021/03/09 06:25:10;;;;;;;12.97;5.40;;;;;;;-2.86;69.11;101146.16;5021477;28;20060;-71
2021/03/09 06:27:36;;;;;;;13.23;6.40;;;;;;;-2.75;69.87;101150.28;5020246;28;20129;-71
2021/03/09 06:30:04;;;;;;;11.03;5.47;;;;;;;-2.66;68.88;101145.63;5021547;28;20061;-71
2021/03/09 06:32:41;;;;;;;10.40;5.40;;;;;;;-2.55;69.19;101155.69;5022850;28;20467;-71
2021/03/09 06:35:07;;;;;;;9.57;4.80;;;;;;;-2.46;69.05;101158.81;5021514;28;20041;-72
2021/03/09 06:37:33;;;;;;;8.77;5.00;;;;;;;-2.35;68.67;101152.53;5018121;28;20093;-71
2021/03/09 06:40:02;;;;;;;12.00;5.60;;;;;;;-2.25;67.97;101154.81;5009517;28;20049;-70
2021/03/09 06:42:31;;;;;;;9.70;4.90;;;;;;;-2.09;68.21;101160.84;5018009;28;20104;-71
2021/03/09 06:44:59;;;;;;;10.73;5.63;;;;;;;-1.96;67.69;101152.06;5021705;28;20042;-70
2021/03/09 06:47:42;;;;;;;15.10;6.53;;;;;;;-1.83;67.83;101147.63;5023289;28;20045;-71
2021/03/09 06:50:32;;;;;;;16.77;8.00;;;;;;;-1.67;67.69;101145.84;5021313;28;20041;-70
2021/03/09 06:53:03;;;;;;;21.43;8.93;;;;;;;-1.49;67.78;101141.63;5020953;28;20048;-71
2021/03/09 06:55:30;;;;;;;18.07;9.10;;;;;;;-1.31;68.22;101149.47;5023087;28;20038;-70
2021/03/09 06:58:12;;;;;;;15.03;8.33;;;;;;;-1.13;66.76;101157.25;5022686;28;20037;-71
2021/03/09 07:00:38;;;;;;;14.80;7.07;;;;;;;-0.98;67.11;101147.69;5019810;28;20099;-71
2021/03/09 07:03:03;;;;;;;13.07;6.57;;;;;;;-0.90;66.54;101153.25;5021352;28;20030;-71
2021/03/09 07:05:29;;;;;;;10.67;6.23;;;;;;;-0.78;66.22;101152.97;5022970;28;20163;-70
2021/03/09 07:07:54;;;;;;;13.60;6.13;;;;;;;-0.67;66.10;101162.16;5022779;28;20120;-71
2021/03/09 07:10:20;;;;;;;9.50;5.53;;;;;;;-0.55;66.23;101157.59;5019193;28;20091;-71
2021/03/09 07:12:47;;;;;;;8.53;4.93;;;;;;;-0.39;66.92;101158.31;5023030;28;20041;-71
2021/03/09 07:15:15;;;;;;;8.30;4.67;;;;;;;-0.31;65.36;101154.41;5019938;28;20042;-70
2021/03/09 07:17:41;;;;;;;7.60;4.00;;;;;;;-0.23;66.02;101155.66;5019416;28;20048;-71
2021/03/09 07:20:08;;;;;;;9.60;4.53;;;;;;;-0.11;65.82;101158.78;5021568;28;20041;-71
2021/03/09 07:22:36;;;;;;;7.90;4.20;;;;;;;0.06;65.06;101154.41;5023081;28;20029;-71
2021/03/09 07:25:25;;;;;;;7.07;4.20;;;;;;;0.19;65.20;101155.88;5021513;28;20033;-72
2021/03/09 07:27:52;;;;;;;8.10;4.13;;;;;;;0.33;65.04;101146.97;5019514;28;20038;-70
2021/03/09 07:30:20;;;;;;;9.47;4.27;;;;;;;0.45;64.33;101151.84;5011418;28;20392;-71
2021/03/09 07:32:48;;;;;;;7.80;4.17;;;;;;;0.62;63.70;101157.78;5019504;28;20092;-71
2021/03/09 07:35:14;;;;;;;8.90;4.20;;;;;;;0.74;63.90;101147.94;5022268;28;20079;-71
2021/03/09 07:37:41;;;;;;;9.90;4.30;;;;;;;0.73;63.60;101148.72;5022910;28;20496;-71
2021/03/09 07:40:18;;;;;;;8.97;4.50;;;;;;;0.72;63.05;101152.16;5020739;28;20068;-71
2021/03/09 07:42:44;;;;;;;8.00;3.80;;;;;;;0.81;62.94;101147.38;5019446;28;20040;-71
2021/03/09 07:45:13;;;;;;;8.03;4.27;;;;;;;0.82;63.25;101148.25;5024805;28;20037;-71
2021/03/09 07:47:59;;;;;;;7.10;4.00;;;;;;;0.87;62.74;101141.56;5026703;28;20515;-71
2021/03/09 07:50:33;;;;;;;9.73;4.70;;;;;;;0.94;62.90;101140.09;5016244;28;20034;-71
2021/03/09 07:52:58;;;;;;;7.80;4.17;;;;;;;1.03;63.35;101137.88;5024099;28;20034;-71
2021/03/09 07:55:25;;;;;;;8.23;4.50;;;;;;;1.19;62.70;101142.91;5026394;28;20708;-71
2021/03/09 07:58:21;;;;;;;10.48;5.55;;;;;;;1.31;61.81;101135.63;5026502;28;20638;-71
2021/03/09 08:00:53;;;;;;;9.32;4.55;;;;;;;1.49;60.75;101140.69;5018981;28;20045;-71
2021/03/09 08:03:23;;;;;;;9.15;4.60;;;;;;;1.56;60.43;101141.78;5011540;28;20117;-71
2021/03/09 08:06:01;;;;;;;9.20;5.05;;;;;;;1.50;60.79;101137.25;5015104;28;20035;-71
2021/03/09 08:08:51;;;;;;;9.77;4.57;;;;;;;1.64;61.06;101129.97;5020663;28;20037;-71
2021/03/09 08:11:19;;;;;;;9.37;5.20;;;;;;;1.88;60.98;101131.75;5024382;28;20114;-71
2021/03/09 08:13:46;;;;;;;9.90;5.05;;;;;;;1.96;59.79;101127.72;5020871;28;20501;-71
2021/03/09 08:16:21;;;;;;;8.15;3.95;;;;;;;1.89;58.82;101131.84;5029972;28;20044;-72
2021/03/09 08:18:54;;;;;;;8.13;4.05;;;;;;;1.88;59.98;101130.03;5026158;28;20514;-71
2021/03/09 08:21:40;;;;;;;8.27;4.03;;;;;;;1.96;59.62;101127.72;5015055;28;20034;-71
2021/03/09 08:24:06;;;;;;;9.77;3.85;;;;;;;2.05;59.94;101122.88;5024442;28;20046;-71
2021/03/09 08:26:31;;;;;;;6.95;3.80;;;;;;;2.19;59.70;101124.28;5025789;28;20103;-71
2021/03/09 08:28:56;;;;;;;7.97;4.07;;;;;;;2.38;59.59;101124.94;5028554;28;20041;-71
2021/03/09 08:31:26;;;;;;;11.43;4.10;;;;;;;2.48;58.93;101134.88;5026035;28;20053;-71
2021/03/09 08:33:53;;;;;;;10.95;4.45;;;;;;;2.45;59.23;101128.69;5025985;28;20060;-71
2021/03/09 08:39:05;;;;;;;8.35;4.95;;;;;;;2.29;60.04;101119.41;5018251;28;20046;-71
2021/03/09 08:41:36;;;;;;;17.25;7.85;;;;;;;2.36;61.02;101118.81;5016130;28;20121;-71
2021/03/09 08:44:14;;;;;;;11.05;5.90;;;;;;;2.56;60.31;101117.81;5023663;28;20041;-71
2021/03/09 08:47:05;;;;;;;9.23;5.97;;;;;;;2.74;60.18;101116.69;5024362;28;20101;-71
2021/03/09 08:49:34;;;;;;;13.07;8.10;;;;;;;2.92;60.37;101117.31;5016198;28;20669;-71
2021/03/09 08:52:00;;;;;;;11.10;6.75;;;;;;;3.06;59.01;101115.16;5020610;28;20048;-71
2021/03/09 08:54:36;;;;;;;12.80;5.35;;;;;;;3.12;58.12;101115.41;5027863;28;20029;-71
2021/03/09 08:57:05;;;;;;;8.23;4.43;;;;;;;3.12;58.26;101114.47;5022386;28;20133;-71
2021/03/09 08:59:32;;;;;;;7.32;4.30;;;;;;;3.22;57.73;101113.97;5025622;28;20037;-71
2021/03/09 09:02:06;;;;;;;6.47;4.03;;;;;;;3.25;57.36;101116.69;5023445;28;20056;-71
2021/03/09 09:04:32;;;;;;;9.70;4.90;;;;;;;3.21;57.42;101110.47;5022189;28;20038;-71
2021/03/09 09:06:57;;;;;;;10.52;5.78;;;;;;;3.16;57.55;101112.03;5022215;28;20118;-71
2021/03/09 09:09:38;;;;;;;6.22;4.07;;;;;;;3.31;57.03;101113.41;5026688;28;20564;-72
2021/03/09 09:12:20;;;;;;;8.88;4.90;;;;;;;3.38;57.41;101113.66;5023700;28;20431;-71
2021/03/09 09:14:47;;;;;;;10.73;5.30;;;;;;;3.53;57.33;101101.91;5021880;28;20060;-71
2021/03/09 09:17:12;;;;;;;10.18;5.05;;;;;;;3.62;57.39;101102.22;5024169;28;20076;-71
2021/03/09 09:19:37;;;;;;;7.25;4.28;;;;;;;3.60;56.64;101096.06;5025228;28;20119;-71
2021/03/09 09:22:03;;;;;;;7.60;4.25;;;;;;;3.59;56.79;101097.78;5023661;28;20034;-71
2021/03/09 09:24:28;;;;;;;8.48;4.70;;;;;;;3.74;56.40;101094.72;5021669;28;20117;-71
2021/03/09 09:26:58;;;;;;;12.85;6.05;;;;;;;3.91;55.85;101096.13;5021271;28;20040;-71
2021/03/09 09:29:24;;;;;;;10.18;6.55;;;;;;;4.02;55.71;101098.19;5024970;28;20033;-71
2021/03/09 09:31:57;;;;;;;9.57;5.35;;;;;;;4.06;55.98;101094.81;5024801;28;20732;-71
2021/03/09 09:34:36;;;;;;;10.20;5.45;;;;;;;4.15;55.73;101100.31;5014143;28;20073;-71
2021/03/09 09:37:10;;;;;;;11.75;4.78;;;;;;;4.30;54.72;101092.03;5022336;28;20037;-71
2021/03/09 09:39:35;;;;;;;8.88;5.38;;;;;;;4.45;55.06;101094.19;5024814;28;20034;-72
2021/03/09 09:42:01;;;;;;;9.20;5.10;;;;;;;4.36;52.93;101095.69;5023551;28;20040;-71
2021/03/09 09:44:26;;;;;;;10.07;5.18;;;;;;;4.42;54.87;101089.75;5021552;28;20136;-71
2021/03/09 09:46:52;;;;;;;8.75;5.15;;;;;;;4.50;54.43;101087.34;5020954;28;20033;-71
2021/03/09 09:49:17;;;;;;;11.63;5.18;;;;;;;4.59;54.24;101087.63;5024661;28;20043;-71
2021/03/09 09:51:43;;;;;;;9.15;6.28;;;;;;;4.63;53.11;101089.44;5024484;28;20065;-71
2021/03/09 09:54:12;;;;;;;10.43;5.82;;;;;;;4.78;53.09;101087.25;5022287;28;20045;-71
2021/03/09 09:56:37;;;;;;;11.88;5.82;;;;;;;5.00;53.34;101078.25;5020984;28;20041;-71
2021/03/09 09:59:02;;;;;;;11.85;6.35;;;;;;;5.16;51.06;101071.66;5022354;28;20124;-71
2021/03/09 10:01:37;;;;;;;12.38;7.05;;;;;;;5.23;50.79;101076.16;5024462;28;20052;-71
2021/03/09 10:04:08;;;;;;;7.38;4.88;;;;;;;5.36;51.33;101073.84;5021775;28;20128;-71
2021/03/09 10:06:44;;;;;;;10.70;4.57;;;;;;;5.43;49.50;101073.16;5024655;28;20030;-71
2021/03/09 10:09:18;;;;;;;8.23;4.47;;;;;;;5.64;50.11;101071.03;5011016;28;20045;-71
2021/03/09 10:11:44;;;;;;;10.00;4.28;;;;;;;5.84;49.62;101068.84;5024016;28;20590;-71
2021/03/09 10:14:10;;;;;;;9.18;4.75;;;;;;;6.05;49.29;101068.47;5023097;28;20516;-71
2021/03/09 10:16:40;;;;;;;9.48;4.57;;;;;;;6.25;47.48;101060.09;5029424;28;20082;-71
2021/03/09 10:19:15;;;;;;;6.95;4.20;;;;;;;6.40;47.55;101065.66;5025287;28;20037;-71
2021/03/09 10:21:40;;;;;;;8.80;4.65;;;;;;;6.68;47.01;101058.28;5025318;28;20400;-72
2021/03/09 10:24:07;;;;;;;13.75;4.47;;;;;;;6.86;46.26;101055.13;5026776;28;20045;-71
2021/03/09 10:26:36;;;;;;;6.15;4.22;;;;;;;6.91;44.51;101056.09;5020285;28;20056;-70
2021/03/09 10:29:17;;;;;;;7.68;4.53;;;;;;;7.06;41.92;101052.84;5021506;28;20045;-71
2021/03/09 10:31:45;;;;;;;9.38;4.47;;;;;;;7.20;41.75;101052.22;5023644;28;20037;-71
2021/03/09 10:34:11;;;;;;;22.20;6.07;;;;;;;7.27;39.70;101042.69;5016431;28;20505;-71
2021/03/09 10:36:59;;;;;;;8.45;4.30;;;;;;;7.47;40.73;101046.50;5027813;28;20034;-71
2021/03/09 10:39:26;;;;;;;10.07;4.25;;;;;;;7.65;39.84;101038.00;5017182;28;20144;-71
2021/03/09 10:41:52;;;;;;;6.53;3.90;;;;;;;7.64;37.80;101037.97;5022360;28;20029;-71
2021/03/09 10:44:29;;;;;;;6.40;3.85;;;;;;;7.82;35.13;101037.34;5020194;28;20045;-71
2021/03/09 10:46:55;;;;;;;6.10;3.85;;;;;;;7.99;36.42;101040.16;5020117;28;20113;-71
2021/03/09 10:49:20;;;;;;;6.45;3.50;;;;;;;7.74;33.08;101039.84;5023538;28;20045;-71
2021/03/09 10:51:46;;;;;;;7.75;3.72;;;;;;;7.82;35.49;101035.59;5023345;28;20068;-71
2021/03/09 10:54:11;;;;;;;8.00;4.20;;;;;;;8.07;35.46;101033.28;5020837;28;20033;-72
2021/03/09 10:56:37;;;;;;;6.07;3.92;;;;;;;8.33;35.51;101031.84;5019774;28;20092;-72
2021/03/09 10:59:02;;;;;;;13.65;4.38;;;;;;;8.11;33.46;101041.19;5021174;28;20030;-71
2021/03/09 11:01:32;;;;;;;6.70;3.63;;;;;;;8.11;32.80;101040.31;5022081;28;20395;-71
2021/03/09 11:03:57;;;;;;;6.30;3.60;;;;;;;8.19;32.95;101033.41;5015368;28;20036;-71
2021/03/09 11:06:22;;;;;;;6.72;3.97;;;;;;;8.35;31.94;101031.84;5025531;28;20030;-71
2021/03/09 11:08:48;;;;;;;7.78;3.83;;;;;;;8.28;32.08;101038.78;5025663;28;20030;-71
2021/03/09 11:11:13;;;;;;;7.00;3.78;;;;;;;8.20;32.16;101029.03;5021157;28;20116;-72
2021/03/09 11:13:38;;;;;;;4.95;3.20;;;;;;;8.27;32.47;101023.84;5027742;28;20025;-71
2021/03/09 11:16:04;;;;;;;6.05;3.58;;;;;;;8.43;32.55;101018.78;5014100;28;20059;-72
2021/03/09 11:18:29;;;;;;;6.22;3.45;;;;;;;8.41;32.07;101013.53;5022507;28;20468;-71
2021/03/09 11:20:54;;;;;;;9.50;3.60;;;;;;;8.51;32.71;101017.13;5022427;28;20029;-71
2021/03/09 11:23:20;;;;;;;6.18;3.65;;;;;;;8.42;30.34;101019.69;5014141;28;20468;-71
2021/03/09 11:25:45;;;;;;;6.40;3.88;;;;;;;8.41;31.94;101013.53;5021378;28;20037;-71
2021/03/09 11:28:11;;;;;;;6.38;4.40;;;;;;;8.50;31.97;101010.09;5019514;28;20073;-71
2021/03/09 11:30:36;;;;;;;6.20;3.50;;;;;;;8.62;31.96;101006.69;5019515;28;20068;-71
2021/03/09 11:33:01;;;;;;;7.22;3.85;;;;;;;8.45;30.98;101010.06;5020637;28;20046;-72